createdAt,value
2023-12-05T00:02:19.177Z,0.18
2023-12-05T00:04:48.758Z,0.19
2023-12-05T00:07:16.446Z,0.23
2023-12-05T00:09:44.062Z,0.26
2023-12-05T00:12:11.619Z,0.29
2023-12-05T00:14:39.250Z,0.32
2023-12-05T00:17:06.818Z,0.37
2023-12-05T00:19:34.630Z,0.41
2023-12-05T00:22:03.589Z,0.46
2023-12-05T00:24:31.152Z,0.51
2023-12-05T00:26:58.833Z,0.53
2023-12-05T00:29:26.424Z,0.56
2023-12-05T00:31:54.257Z,0.58
2023-12-05T00:34:22.094Z,0.59
2023-12-05T00:36:50.181Z,0.63
2023-12-05T00:39:19.170Z,0.64
2023-12-05T00:41:47.977Z,0.66
2023-12-05T00:44:15.533Z,0.66
2023-12-05T00:46:43.108Z,0.66
2023-12-05T00:49:10.855Z,0.66
2023-12-05T00:51:38.613Z,0.65
2023-12-05T00:54:06.248Z,0.65
2023-12-05T00:56:35.159Z,0.65
2023-12-05T00:59:02.701Z,0.65
2023-12-05T01:01:30.444Z,0.66
2023-12-05T01:03:58.616Z,0.66
2023-12-05T01:06:26.419Z,0.65
2023-12-05T01:08:54.072Z,0.66
2023-12-05T01:11:21.857Z,0.66
2023-12-05T01:13:50.793Z,0.69
2023-12-05T01:16:18.367Z,0.72
2023-12-05T01:18:46.025Z,0.75
2023-12-05T01:21:13.658Z,0.79
2023-12-05T01:23:42.328Z,0.85
2023-12-05T01:26:09.877Z,0.90
2023-12-05T01:28:37.438Z,0.93
2023-12-05T01:31:06.748Z,0.95
2023-12-05T01:33:34.349Z,0.98
2023-12-05T01:36:01.889Z,1.01
2023-12-05T01:38:29.494Z,1.06
2023-12-05T01:40:57.036Z,1.10
2023-12-05T01:43:24.943Z,1.13
2023-12-05T01:45:53.354Z,1.16
2023-12-05T01:48:22.700Z,1.18
2023-12-05T01:50:50.799Z,1.20
2023-12-05T01:53:18.860Z,1.21
2023-12-05T01:55:46.720Z,1.22
2023-12-05T01:58:15.577Z,1.24
2023-12-05T02:00:43.537Z,1.27
2023-12-05T02:03:12.147Z,1.28
2023-12-05T02:05:41.232Z,1.31
2023-12-05T02:08:12.653Z,1.32
2023-12-05T02:10:40.683Z,1.32
2023-12-05T02:13:08.286Z,1.32
2023-12-05T02:15:35.939Z,1.33
2023-12-05T02:18:12.428Z,1.33
2023-12-05T02:20:48.696Z,1.33
2023-12-05T02:23:43.478Z,1.33
2023-12-05T02:26:21.078Z,1.32
2023-12-05T02:28:50.646Z,1.33
2023-12-05T02:31:18.741Z,1.35
2023-12-05T02:33:48.390Z,1.37
2023-12-05T02:36:38.030Z,1.39
2023-12-05T02:39:13.433Z,1.40
2023-12-05T02:41:46.469Z,1.42
2023-12-05T02:44:17.485Z,1.48
2023-12-05T02:46:46.560Z,1.51
2023-12-05T02:49:14.523Z,1.54
2023-12-05T02:51:42.829Z,1.57
2023-12-05T02:54:10.425Z,1.59
2023-12-05T02:56:38.121Z,1.60
2023-12-05T02:59:06.130Z,1.62
2023-12-05T03:01:40.593Z,1.63
2023-12-05T03:04:08.448Z,1.67
2023-12-05T03:06:36.261Z,1.68
2023-12-05T03:09:04.855Z,1.70
2023-12-05T03:11:32.864Z,1.70
2023-12-05T03:14:00.822Z,1.71
2023-12-05T03:16:28.499Z,1.70
2023-12-05T03:18:57.579Z,1.70
2023-12-05T03:21:25.648Z,1.68
2023-12-05T03:23:53.251Z,1.63
2023-12-05T03:26:21.255Z,1.59
2023-12-05T03:28:50.023Z,1.58
2023-12-05T03:31:17.655Z,1.56
2023-12-05T03:33:45.748Z,1.54
2023-12-05T03:36:15.342Z,1.53
2023-12-05T03:38:42.912Z,1.50
2023-12-05T03:41:10.896Z,1.48
2023-12-05T03:43:38.500Z,1.46
2023-12-05T03:46:06.585Z,1.43
2023-12-05T03:48:34.326Z,1.42
2023-12-05T03:51:02.091Z,1.39
2023-12-05T03:53:31.144Z,1.34
2023-12-05T03:55:58.677Z,1.33
2023-12-05T03:58:26.369Z,1.31
2023-12-05T04:00:53.981Z,1.33
2023-12-05T04:03:21.838Z,1.31
2023-12-05T04:05:49.537Z,1.28
2023-12-05T04:08:17.100Z,1.29
2023-12-05T04:10:45.935Z,1.30
2023-12-05T04:13:13.490Z,1.29
2023-12-05T04:15:41.700Z,1.29
2023-12-05T04:18:09.302Z,1.32
2023-12-05T04:20:36.959Z,1.34
2023-12-05T04:23:04.547Z,1.35
2023-12-05T04:25:32.188Z,1.37
2023-12-05T04:28:01.060Z,1.36
2023-12-05T04:30:28.646Z,1.33
2023-12-05T04:32:56.258Z,1.29
2023-12-05T04:35:23.799Z,1.23
2023-12-05T04:37:51.318Z,1.22
2023-12-05T04:40:20.186Z,1.18
2023-12-05T04:42:48.081Z,1.17
2023-12-05T04:45:17.361Z,1.14
2023-12-05T04:47:45.878Z,1.13
2023-12-05T04:50:13.518Z,1.11
2023-12-05T04:52:41.065Z,1.08
2023-12-05T04:55:09.332Z,1.08
2023-12-05T04:57:36.961Z,1.08
2023-12-05T05:00:07.129Z,1.10
2023-12-05T05:02:36.059Z,1.09
2023-12-05T05:05:03.888Z,1.09
2023-12-05T05:07:31.633Z,1.07
2023-12-05T05:09:59.253Z,1.06
2023-12-05T05:12:27.237Z,1.05
2023-12-05T05:14:54.821Z,1.08
2023-12-05T05:17:22.443Z,1.10
2023-12-05T05:19:51.371Z,1.10
2023-12-05T05:22:18.919Z,1.10
2023-12-05T05:24:46.499Z,1.10
2023-12-05T05:27:14.305Z,1.11
2023-12-05T05:29:41.902Z,1.12
2023-12-05T05:32:09.522Z,1.12
2023-12-05T05:34:37.125Z,1.12
2023-12-05T05:37:06.165Z,1.10
2023-12-05T05:39:34.426Z,1.11
2023-12-05T05:42:01.969Z,1.12
2023-12-05T05:44:29.815Z,1.16
2023-12-05T05:46:57.374Z,1.19
2023-12-05T05:49:25.311Z,1.20
2023-12-05T05:51:52.939Z,1.23
2023-12-05T05:54:23.078Z,1.22
2023-12-05T05:56:50.623Z,1.22
2023-12-05T05:59:18.349Z,1.22
2023-12-05T06:01:48.738Z,1.20
2023-12-05T06:04:16.410Z,1.16
2023-12-05T06:06:44.040Z,1.13
2023-12-05T06:09:11.581Z,1.10
2023-12-05T06:11:40.601Z,1.09
2023-12-05T06:14:08.294Z,1.06
2023-12-05T06:16:35.921Z,1.05
2023-12-05T06:19:03.635Z,1.06
2023-12-05T06:21:31.258Z,1.07
2023-12-05T06:24:00.183Z,1.11
2023-12-05T06:26:27.936Z,1.14
2023-12-05T06:28:56.871Z,1.16
2023-12-05T06:31:25.096Z,1.17
2023-12-05T06:33:52.934Z,1.17
2023-12-05T06:36:20.665Z,1.15
2023-12-05T06:38:48.270Z,1.12
2023-12-05T06:41:15.887Z,1.08
2023-12-05T06:43:43.457Z,1.07
2023-12-05T06:46:12.268Z,1.08
2023-12-05T06:48:39.969Z,1.10
2023-12-05T06:51:07.879Z,1.14
2023-12-05T06:53:39.820Z,1.15
2023-12-05T06:56:15.095Z,1.16
2023-12-05T06:58:43.204Z,1.18
2023-12-05T07:01:12.697Z,1.19
2023-12-05T07:03:47.336Z,1.19
2023-12-05T07:06:18.695Z,1.21
2023-12-05T07:08:46.314Z,1.23
2023-12-05T07:11:13.822Z,1.23
2023-12-05T07:13:41.420Z,1.24
2023-12-05T07:16:11.280Z,1.26
2023-12-05T07:18:40.383Z,1.28
2023-12-05T07:21:09.451Z,1.26
2023-12-05T07:23:37.067Z,1.24
2023-12-05T07:26:04.920Z,1.23
2023-12-05T07:28:32.533Z,1.23
2023-12-05T07:31:00.172Z,1.21
2023-12-05T07:33:27.924Z,1.23
2023-12-05T07:35:58.763Z,1.27
2023-12-05T07:38:26.362Z,1.29
2023-12-05T07:40:54.207Z,1.32
2023-12-05T07:43:21.748Z,1.31
2023-12-05T07:45:49.450Z,1.30
2023-12-05T07:48:17.163Z,1.28
2023-12-05T07:50:45.074Z,1.28
2023-12-05T07:53:14.090Z,1.27
2023-12-05T07:55:41.676Z,1.26
2023-12-05T07:58:09.214Z,1.26
2023-12-05T08:00:39.884Z,1.28
2023-12-05T08:03:07.537Z,1.31
2023-12-05T08:05:35.453Z,1.34
2023-12-05T08:08:03.018Z,1.35
2023-12-05T08:10:32.108Z,1.37
2023-12-05T08:12:59.744Z,1.39
2023-12-05T08:15:27.410Z,1.42
2023-12-05T08:17:55.042Z,1.40
2023-12-05T08:20:22.985Z,1.38
2023-12-05T08:22:50.782Z,1.39
2023-12-05T08:25:18.550Z,1.40
2023-12-05T08:27:47.506Z,1.42
2023-12-05T08:30:15.715Z,1.43
2023-12-05T08:32:43.954Z,1.44
2023-12-05T08:35:11.741Z,1.43
2023-12-05T08:37:39.477Z,1.43
2023-12-05T08:40:08.478Z,1.44
2023-12-05T08:42:36.320Z,1.46
2023-12-05T08:45:05.965Z,1.49
2023-12-05T08:47:33.518Z,1.52
2023-12-05T08:50:01.058Z,1.53
2023-12-05T08:52:28.583Z,1.53
2023-12-05T08:54:56.232Z,1.56
2023-12-05T08:57:24.095Z,1.57
2023-12-05T08:59:51.625Z,1.60
2023-12-05T09:02:22.212Z,1.62
2023-12-05T09:04:49.933Z,1.67
2023-12-05T09:07:18.598Z,1.72
2023-12-05T09:09:46.356Z,1.77
2023-12-05T09:12:13.990Z,1.85
2023-12-05T09:14:41.744Z,1.90
2023-12-05T09:17:11.164Z,1.94
2023-12-05T09:19:40.247Z,1.97
2023-12-05T09:22:07.805Z,2.03
2023-12-05T09:24:35.493Z,2.08
2023-12-05T09:27:03.777Z,2.15
2023-12-05T09:29:32.183Z,2.21
2023-12-05T09:31:59.723Z,2.26
2023-12-05T09:34:27.334Z,2.32
2023-12-05T09:36:56.282Z,2.38
2023-12-05T09:39:24.686Z,2.45
2023-12-05T09:41:54.232Z,2.53
2023-12-05T09:44:23.315Z,2.61
2023-12-05T09:46:54.877Z,2.68
2023-12-05T09:49:27.954Z,2.74
2023-12-05T09:51:57.129Z,2.80
2023-12-05T09:54:27.050Z,2.87
2023-12-05T09:56:56.514Z,2.95
2023-12-05T09:59:24.282Z,3.04
2023-12-05T10:01:54.861Z,3.11
2023-12-05T10:04:24.281Z,3.18
2023-12-05T10:06:53.447Z,3.25
2023-12-05T10:09:24.269Z,3.35
2023-12-05T10:11:52.612Z,3.43
2023-12-05T10:14:20.317Z,3.51
2023-12-05T10:16:48.763Z,3.60
2023-12-05T10:19:16.686Z,3.65
2023-12-05T10:21:45.405Z,3.75
2023-12-05T10:24:40.084Z,3.78
2023-12-05T10:27:09.036Z,3.85
2023-12-05T10:29:39.259Z,3.90
2023-12-05T10:32:08.539Z,4.01
2023-12-05T10:34:50.154Z,4.09
2023-12-05T10:37:22.332Z,4.18
2023-12-05T10:39:52.119Z,4.25
2023-12-05T10:42:20.192Z,4.32
2023-12-05T10:44:48.532Z,4.41
2023-12-05T10:47:19.288Z,4.49
2023-12-05T10:49:50.145Z,4.60
2023-12-05T10:52:17.988Z,4.74
2023-12-05T10:54:45.896Z,4.85
2023-12-05T10:57:14.831Z,4.95
2023-12-05T10:59:42.488Z,5.08
2023-12-05T11:02:14.300Z,5.21
2023-12-05T11:04:42.804Z,5.36
2023-12-05T11:07:10.582Z,5.55
2023-12-05T11:09:38.165Z,5.73
2023-12-05T11:12:07.990Z,5.93
2023-12-05T11:14:41.689Z,6.15
2023-12-05T11:17:12.691Z,6.40
2023-12-05T11:20:02.205Z,6.65
2023-12-05T11:22:39.553Z,6.90
2023-12-05T11:25:30.828Z,7.15
2023-12-05T11:28:09.395Z,7.38
2023-12-05T11:31:07.602Z,7.58
2023-12-05T11:33:49.901Z,7.78
2023-12-05T11:36:30.653Z,7.90
2023-12-05T11:39:00.505Z,8.04
2023-12-05T11:41:28.862Z,8.18
2023-12-05T11:44:20.075Z,8.33
2023-12-05T11:46:49.636Z,8.47
2023-12-05T11:49:35.767Z,8.63
2023-12-05T11:52:10.336Z,8.78
2023-12-05T11:54:38.169Z,8.87
2023-12-05T11:57:13.808Z,8.95
2023-12-05T11:59:42.232Z,9.02
2023-12-05T12:02:14.237Z,9.05
2023-12-05T12:04:42.097Z,9.10
2023-12-05T12:07:09.763Z,9.17
2023-12-05T12:09:42.072Z,9.18
2023-12-05T12:12:11.160Z,9.17
2023-12-05T12:14:42.054Z,9.11
2023-12-05T12:17:12.771Z,9.04
2023-12-05T12:19:40.659Z,8.93
2023-12-05T12:22:09.675Z,8.83
2023-12-05T12:24:38.552Z,8.77
2023-12-05T12:27:08.211Z,8.69
2023-12-05T12:29:37.135Z,8.60
2023-12-05T12:32:13.584Z,8.53
2023-12-05T12:34:44.647Z,8.47
2023-12-05T12:37:18.176Z,8.41
2023-12-05T12:39:50.691Z,8.38
2023-12-05T12:42:18.976Z,8.33
2023-12-05T12:44:47.343Z,8.28
2023-12-05T12:47:17.088Z,8.22
2023-12-05T12:49:44.818Z,8.20
2023-12-05T12:52:12.681Z,8.15
2023-12-05T12:54:41.409Z,8.07
2023-12-05T12:57:09.096Z,8.04
2023-12-05T12:59:37.810Z,8.02
2023-12-05T13:02:07.843Z,8.01
2023-12-05T13:04:38.484Z,7.97
2023-12-05T13:07:06.548Z,7.95
2023-12-05T13:09:34.590Z,7.92
2023-12-05T13:12:02.477Z,7.86
2023-12-05T13:14:30.041Z,7.80
2023-12-05T13:16:57.588Z,7.80
2023-12-05T13:19:28.131Z,7.76
2023-12-05T13:21:57.368Z,7.76
2023-12-05T13:24:24.928Z,7.75
2023-12-05T13:26:52.924Z,7.73
2023-12-05T13:29:21.206Z,7.75
2023-12-05T13:31:48.813Z,7.73
2023-12-05T13:34:16.586Z,7.71
2023-12-05T13:36:44.586Z,7.66
2023-12-05T13:39:16.313Z,7.63
2023-12-05T13:41:44.408Z,7.59
2023-12-05T13:44:11.907Z,7.51
2023-12-05T13:46:40.275Z,7.43
2023-12-05T13:49:08.222Z,7.36
2023-12-05T13:51:36.520Z,7.25
2023-12-05T13:54:05.080Z,7.15
2023-12-05T13:56:34.369Z,7.07
2023-12-05T13:59:02.022Z,6.96
2023-12-05T14:01:29.685Z,6.86
2023-12-05T14:03:58.363Z,6.77
2023-12-05T14:06:26.168Z,6.72
2023-12-05T14:08:53.765Z,6.67
2023-12-05T14:11:21.257Z,6.63
2023-12-05T14:13:50.150Z,6.55
2023-12-05T14:16:17.778Z,6.46
2023-12-05T14:18:45.336Z,6.41
2023-12-05T14:21:12.906Z,6.35
2023-12-05T14:23:40.681Z,6.28
2023-12-05T14:26:08.449Z,6.23
2023-12-05T14:28:35.020Z,6.17
2023-12-05T14:31:03.979Z,6.12
2023-12-05T14:33:31.673Z,6.02
2023-12-05T14:35:59.285Z,5.94
2023-12-05T14:38:26.943Z,5.87
2023-12-05T14:40:54.459Z,5.77
2023-12-05T14:43:21.968Z,5.68
2023-12-05T14:45:49.525Z,5.59
2023-12-05T14:48:18.476Z,5.53
2023-12-05T14:50:46.084Z,5.48
2023-12-05T14:53:13.759Z,5.40
2023-12-05T14:55:41.334Z,5.34
2023-12-05T14:58:09.347Z,5.29
2023-12-05T15:00:37.424Z,5.24
2023-12-05T15:03:05.456Z,5.21
2023-12-05T15:05:34.383Z,5.17
2023-12-05T15:08:03.089Z,5.15
2023-12-05T15:10:31.752Z,5.08
2023-12-05T15:12:59.324Z,5.02
2023-12-05T15:15:27.335Z,4.97
2023-12-05T15:17:55.028Z,4.92
2023-12-05T15:20:24.249Z,4.85
2023-12-05T15:22:54.210Z,4.78
2023-12-05T15:25:21.983Z,4.71
2023-12-05T15:27:49.625Z,4.66
2023-12-05T15:30:17.348Z,4.63
2023-12-05T15:32:51.367Z,4.59
2023-12-05T15:35:19.803Z,4.56
2023-12-05T15:37:47.390Z,4.56
2023-12-05T15:40:17.257Z,4.53
2023-12-05T15:42:46.094Z,4.53
2023-12-05T15:45:14.351Z,4.52
2023-12-05T15:47:44.057Z,4.49
2023-12-05T15:50:12.149Z,4.47
2023-12-05T15:52:40.082Z,4.43
2023-12-05T15:55:08.279Z,4.40
2023-12-05T15:57:37.607Z,4.37
2023-12-05T16:00:06.260Z,4.33
2023-12-05T16:02:33.915Z,4.31
2023-12-05T16:05:01.601Z,4.31
2023-12-05T16:07:29.420Z,4.30
2023-12-05T16:09:57.127Z,4.30
2023-12-05T16:12:24.754Z,4.30
2023-12-05T16:14:53.950Z,4.29
2023-12-05T16:17:21.674Z,4.26
2023-12-05T16:19:49.572Z,4.22
2023-12-05T16:22:17.185Z,4.18
2023-12-05T16:24:44.758Z,4.15
2023-12-05T16:27:12.355Z,4.12
2023-12-05T16:29:39.898Z,4.10
2023-12-05T16:32:09.315Z,4.07
2023-12-05T16:34:36.968Z,4.04
2023-12-05T16:37:04.887Z,4.02
2023-12-05T16:39:32.575Z,4.00
2023-12-05T16:42:00.210Z,3.96
2023-12-05T16:44:27.804Z,3.92
2023-12-05T16:46:55.362Z,3.88
2023-12-05T16:49:24.984Z,3.87
2023-12-05T16:51:53.247Z,3.85
2023-12-05T16:54:20.833Z,3.83
2023-12-05T16:56:48.693Z,3.80
2023-12-05T16:59:25.037Z,3.79
2023-12-05T17:01:56.291Z,3.79
2023-12-05T17:04:25.310Z,3.79
2023-12-05T17:06:55.638Z,3.80
2023-12-05T17:09:23.409Z,3.81
2023-12-05T17:11:50.936Z,3.79
2023-12-05T17:14:18.444Z,3.79
2023-12-05T17:16:45.959Z,3.78
2023-12-05T17:19:13.597Z,3.78
2023-12-05T17:21:42.532Z,3.77
2023-12-05T17:24:10.133Z,3.77
2023-12-05T17:26:37.648Z,3.76
2023-12-05T17:29:05.552Z,3.75
2023-12-05T17:31:33.145Z,3.76
2023-12-05T17:34:01.150Z,3.76
2023-12-05T17:36:28.859Z,3.78
2023-12-05T17:38:57.781Z,3.78
2023-12-05T17:41:25.334Z,3.81
2023-12-05T17:43:52.853Z,3.82
2023-12-05T17:46:20.429Z,3.83
2023-12-05T17:48:48.123Z,3.84
2023-12-05T17:51:15.769Z,3.85
2023-12-05T17:53:43.355Z,3.87
2023-12-05T17:56:12.673Z,3.88
2023-12-05T17:58:40.318Z,3.89
2023-12-05T18:01:09.036Z,3.88
2023-12-05T18:03:36.771Z,3.88
2023-12-05T18:06:04.738Z,3.88
2023-12-05T18:08:32.372Z,3.86
2023-12-05T18:11:00.264Z,3.85
2023-12-05T18:13:29.186Z,3.85
2023-12-05T18:15:56.775Z,3.85
2023-12-05T18:18:24.650Z,3.84
2023-12-05T18:20:52.321Z,3.82
2023-12-05T18:23:19.887Z,3.81
2023-12-05T18:25:47.436Z,3.79
2023-12-05T18:28:16.314Z,3.78
2023-12-05T18:30:45.305Z,3.76
2023-12-05T18:33:13.123Z,3.77
2023-12-05T18:35:40.731Z,3.75
2023-12-05T18:38:09.122Z,3.75
2023-12-05T18:40:36.643Z,3.75
2023-12-05T18:43:04.414Z,3.74
2023-12-05T18:45:32.923Z,3.72
2023-12-05T18:48:01.933Z,3.69
2023-12-05T18:50:29.580Z,3.68
2023-12-05T18:52:58.276Z,3.67
2023-12-05T18:55:26.135Z,3.63
2023-12-05T18:57:54.948Z,3.60
2023-12-05T19:00:22.554Z,3.61
2023-12-05T19:02:51.273Z,3.60
2023-12-05T19:05:20.298Z,3.59
2023-12-05T19:07:48.779Z,3.59
2023-12-05T19:10:16.472Z,3.62
2023-12-05T19:12:46.096Z,3.60
2023-12-05T19:15:13.811Z,3.60
2023-12-05T19:17:41.533Z,3.57
2023-12-05T19:20:10.240Z,3.55
2023-12-05T19:22:38.155Z,3.56
2023-12-05T19:25:07.221Z,3.58
2023-12-05T19:27:35.675Z,3.59
2023-12-05T19:30:05.022Z,3.60
2023-12-05T19:32:32.663Z,3.61
2023-12-05T19:35:00.384Z,3.61
2023-12-05T19:37:28.055Z,3.61
2023-12-05T19:39:56.963Z,3.61
2023-12-05T19:42:24.583Z,3.59
2023-12-05T19:44:52.160Z,3.57
2023-12-05T19:47:23.800Z,3.56
2023-12-05T19:49:51.956Z,3.55
2023-12-05T19:52:19.753Z,3.51
2023-12-05T19:54:47.343Z,3.51
2023-12-05T19:57:16.417Z,3.51
2023-12-05T19:59:45.704Z,3.51
2023-12-05T20:02:13.371Z,3.49
2023-12-05T20:04:41.300Z,3.48
2023-12-05T20:07:09.312Z,3.46
2023-12-05T20:09:38.105Z,3.46
2023-12-05T20:12:06.510Z,3.44
2023-12-05T20:14:35.455Z,3.41
2023-12-05T20:17:04.335Z,3.40
2023-12-05T20:19:32.362Z,3.38
2023-12-05T20:22:00.221Z,3.35
2023-12-05T20:24:27.914Z,3.32
2023-12-05T20:26:55.454Z,3.27
2023-12-05T20:29:24.472Z,3.24
2023-12-05T20:31:53.380Z,3.21
2023-12-05T20:34:21.008Z,3.21
2023-12-05T20:36:48.654Z,3.19
2023-12-05T20:39:16.235Z,3.16
2023-12-05T20:41:43.870Z,3.15
2023-12-05T20:44:11.685Z,3.17
2023-12-05T20:46:39.252Z,3.17
2023-12-05T20:49:08.286Z,3.19
2023-12-05T20:51:35.886Z,3.17
2023-12-05T20:54:03.421Z,3.17
2023-12-05T20:56:30.993Z,3.18
2023-12-05T20:58:58.806Z,3.20
2023-12-05T21:01:26.399Z,3.20
2023-12-05T21:03:54.368Z,3.19
2023-12-05T21:06:23.548Z,3.20
2023-12-05T21:09:10.776Z,3.20
2023-12-05T21:11:38.578Z,3.19
2023-12-05T21:14:06.912Z,3.18
2023-12-05T21:16:35.363Z,3.18
2023-12-05T21:19:03.025Z,3.20
2023-12-05T21:21:32.030Z,3.22
2023-12-05T21:23:59.684Z,3.25
2023-12-05T21:26:27.228Z,3.25
2023-12-05T21:28:54.835Z,3.25
2023-12-05T21:31:22.374Z,3.22
2023-12-05T21:33:50.043Z,3.21
2023-12-05T21:36:24.899Z,3.20
2023-12-05T21:38:58.363Z,3.22
2023-12-05T21:41:27.082Z,3.21
2023-12-05T21:43:54.632Z,3.22
2023-12-05T21:46:23.842Z,3.25
2023-12-05T21:48:51.823Z,3.27
2023-12-05T21:51:19.522Z,3.29
2023-12-05T21:53:47.091Z,3.30
2023-12-05T21:56:16.035Z,3.30
2023-12-05T21:58:43.573Z,3.31
2023-12-05T22:01:12.596Z,3.30
2023-12-05T22:03:40.602Z,3.34
2023-12-05T22:06:09.266Z,3.36
2023-12-05T22:08:37.198Z,3.36
2023-12-05T22:11:07.075Z,3.37
2023-12-05T22:13:35.942Z,3.37
2023-12-05T22:16:05.152Z,3.40
2023-12-05T22:18:33.070Z,3.45
2023-12-05T22:21:02.410Z,3.46
2023-12-05T22:23:33.569Z,3.47
2023-12-05T22:26:03.153Z,3.47
2023-12-05T22:28:32.608Z,3.49
2023-12-05T22:31:01.706Z,3.52
2023-12-05T22:33:29.661Z,3.53
2023-12-05T22:35:58.154Z,3.54
2023-12-05T22:38:25.854Z,3.53
2023-12-05T22:40:53.508Z,3.55
2023-12-05T22:43:21.134Z,3.57
2023-12-05T22:45:48.740Z,3.59
2023-12-05T22:48:17.795Z,3.61
2023-12-05T22:50:45.532Z,3.63
2023-12-05T22:53:13.103Z,3.63
2023-12-05T22:55:40.866Z,3.66
2023-12-05T22:58:08.487Z,3.68
2023-12-05T23:00:36.190Z,3.68
2023-12-05T23:03:03.877Z,3.70
2023-12-05T23:05:32.855Z,3.74
2023-12-05T23:08:00.485Z,3.75
2023-12-05T23:10:28.190Z,3.78
2023-12-05T23:12:55.826Z,3.78
2023-12-05T23:15:23.457Z,3.80
2023-12-05T23:17:51.066Z,3.81
2023-12-05T23:20:18.801Z,3.81
2023-12-05T23:22:47.706Z,3.80
2023-12-05T23:25:15.666Z,3.81
2023-12-05T23:27:43.330Z,3.82
2023-12-05T23:30:12.791Z,3.82
2023-12-05T23:32:40.418Z,3.84
2023-12-05T23:35:08.616Z,3.86
2023-12-05T23:37:36.197Z,3.90
2023-12-05T23:40:06.224Z,3.92
2023-12-05T23:42:33.902Z,3.93
2023-12-05T23:45:01.585Z,3.95
2023-12-05T23:47:29.572Z,3.97
2023-12-05T23:49:57.741Z,3.96
2023-12-05T23:52:25.281Z,3.97
2023-12-05T23:54:52.931Z,3.95
2023-12-05T23:57:22.073Z,3.95
2023-12-05T23:59:49.832Z,3.94
